Terminal Aerodrome Forecast
Issued by NWS

Home | Current Version | Previous Version | Text Only | Print | Product List | Glossary On
Versions: 1 2 3 4 5 6 7 8 9 10 11 12 13
000
FTUS46 KSEW 271100
TAFPAE
TAF
KPAE 271124Z 2712/2812 05005KT P6SM SKC
     FM271800 30004KT P6SM SKC
     FM280000 36006KT P6SM SCT060 SCT250=

USA.gov is the U.S. government's official web portal to all federal, state and local government web resources and services.